createdAt,value
2022-09-11T04:59:37.606Z,47.00
2022-09-11T05:00:42.074Z,49.40
2022-09-11T05:01:46.535Z,63.40
2022-09-11T05:02:50.892Z,50.80
2022-09-11T05:03:55.295Z,48.60
2022-09-11T05:04:59.698Z,49.20
2022-09-11T05:06:04.136Z,50.30
2022-09-11T05:07:08.538Z,62.60
2022-09-11T05:08:12.937Z,46.60
2022-09-11T05:09:17.339Z,50.20
2022-09-11T05:10:21.767Z,56.80
2022-09-11T05:11:26.161Z,59.60
2022-09-11T05:12:30.547Z,62.40
2022-09-11T05:13:36.549Z,71.50
2022-09-11T05:14:39.335Z,45.30
2022-09-11T05:15:43.754Z,47.30
2022-09-11T05:16:48.236Z,44.50
2022-09-11T05:17:52.540Z,42.50
2022-09-11T05:18:56.938Z,45.40
2022-09-11T05:20:01.339Z,48.60
2022-09-11T05:21:05.758Z,52.60
2022-09-11T05:22:10.160Z,42.90
2022-09-11T05:23:14.549Z,42.20
2022-09-11T05:24:18.939Z,40.70
2022-09-11T05:25:23.319Z,52.10
2022-09-11T05:26:27.745Z,41.80
2022-09-11T05:27:32.129Z,42.80
2022-09-11T05:28:36.519Z,49.10
2022-09-11T05:29:40.908Z,65.80
2022-09-11T05:30:45.324Z,46.80
2022-09-11T05:31:49.784Z,57.40
2022-09-11T05:32:54.098Z,41.90
2022-09-11T05:33:58.482Z,42.40
2022-09-11T05:35:02.867Z,46.70
2022-09-11T05:36:07.279Z,38.50
2022-09-11T05:37:11.670Z,38.90
2022-09-11T05:38:16.051Z,53.00
2022-09-11T05:39:20.449Z,53.60
2022-09-11T05:40:24.841Z,41.70
2022-09-11T05:41:29.251Z,56.10
2022-09-11T05:42:33.641Z,43.30
2022-09-11T05:43:38.112Z,42.40
2022-09-11T05:44:42.423Z,49.80
2022-09-11T05:45:46.826Z,53.90
2022-09-11T05:46:51.219Z,38.70
2022-09-11T05:47:56.104Z,46.00
2022-09-11T05:48:59.992Z,50.80
2022-09-11T05:50:04.382Z,39.40
2022-09-11T05:51:08.782Z,40.00
2022-09-11T05:52:13.175Z,37.70
2022-09-11T05:53:17.562Z,44.90
2022-09-11T05:54:21.951Z,38.10
2022-09-11T05:55:26.332Z,44.40
2022-09-11T05:56:30.756Z,37.10
2022-09-11T05:57:35.134Z,53.80
2022-09-11T05:58:39.523Z,35.70
2022-09-11T05:59:43.903Z,44.40
2022-09-11T06:00:48.297Z,33.00
2022-09-11T06:01:52.758Z,44.10
2022-09-11T06:02:57.084Z,35.50
2022-09-11T06:04:01.463Z,40.40
2022-09-11T06:05:05.854Z,38.80
2022-09-11T06:06:10.255Z,36.10
2022-09-11T06:07:14.651Z,44.10
2022-09-11T06:08:19.033Z,39.10
2022-09-11T06:09:23.426Z,40.40
2022-09-11T06:10:27.805Z,49.50
2022-09-11T06:11:32.215Z,46.60
2022-09-11T06:12:40.636Z,51.50
2022-09-11T06:13:45.116Z,44.90
2022-09-11T06:14:49.395Z,36.90
2022-09-11T06:15:53.775Z,36.90
2022-09-11T06:16:58.210Z,39.10
2022-09-11T06:18:02.575Z,45.60
2022-09-11T06:19:06.955Z,37.10
2022-09-11T06:20:11.368Z,39.90
2022-09-11T06:21:15.746Z,40.80
2022-09-11T06:22:20.136Z,36.10
2022-09-11T06:23:24.518Z,34.40
2022-09-11T06:24:28.909Z,34.70
2022-09-11T06:25:33.298Z,44.00
2022-09-11T06:26:37.708Z,33.10
2022-09-11T06:27:42.096Z,31.50
2022-09-11T06:28:46.477Z,42.50
2022-09-11T06:29:50.858Z,35.80
2022-09-11T06:30:55.266Z,36.90
2022-09-11T06:31:59.659Z,39.50
2022-09-11T06:33:04.050Z,30.30
2022-09-11T06:34:08.440Z,32.20
2022-09-11T06:35:12.818Z,34.00
2022-09-11T06:36:17.228Z,30.90
2022-09-11T06:37:21.608Z,31.30
2022-09-11T06:38:25.989Z,32.40
2022-09-11T06:39:30.377Z,29.20
2022-09-11T06:40:34.758Z,34.70
2022-09-11T06:41:39.180Z,31.20
2022-09-11T06:42:43.558Z,28.40
2022-09-11T06:43:47.964Z,29.80
2022-09-11T06:44:52.349Z,30.80
2022-09-11T06:45:56.763Z,27.10
2022-09-11T06:47:01.149Z,36.10
2022-09-11T06:48:05.540Z,29.70
2022-09-11T06:49:09.932Z,27.20
2022-09-11T06:50:14.320Z,28.70
2022-09-11T06:51:18.730Z,30.00
2022-09-11T06:52:23.113Z,27.60
2022-09-11T06:53:27.490Z,28.80
2022-09-11T06:54:31.884Z,29.00
2022-09-11T06:55:36.260Z,27.40
2022-09-11T06:56:40.671Z,26.70
2022-09-11T06:57:45.049Z,25.20
2022-09-11T06:58:49.441Z,25.70
2022-09-11T06:59:53.821Z,28.50
2022-09-11T07:00:58.276Z,27.80
2022-09-11T07:02:02.721Z,27.00
2022-09-11T07:03:07.010Z,26.70
2022-09-11T07:04:11.396Z,26.30
2022-09-11T07:05:16.631Z,25.80
2022-09-11T07:06:21.043Z,26.60
2022-09-11T07:07:25.432Z,29.20
2022-09-11T07:08:29.821Z,26.00
2022-09-11T07:09:34.203Z,27.70
2022-09-11T07:10:38.586Z,27.00
2022-09-11T07:11:43.002Z,26.40
2022-09-11T07:12:47.384Z,25.20
2022-09-11T07:13:51.772Z,24.40
2022-09-11T07:14:56.153Z,24.50
2022-09-11T07:16:00.583Z,24.20
2022-09-11T07:17:04.964Z,24.50
2022-09-11T07:18:09.372Z,25.00
2022-09-11T07:19:13.762Z,25.90
2022-09-11T07:20:18.163Z,24.80
2022-09-11T07:21:22.577Z,25.40
2022-09-11T07:22:26.965Z,24.30
2022-09-11T07:23:31.358Z,23.80
2022-09-11T07:24:35.745Z,22.90
2022-09-11T07:25:40.125Z,23.60
2022-09-11T07:26:44.534Z,23.50
2022-09-11T07:27:48.916Z,23.00
2022-09-11T07:28:53.317Z,21.90
2022-09-11T07:29:57.695Z,23.20
2022-09-11T07:31:02.182Z,22.60
2022-09-11T07:32:06.486Z,22.20
2022-09-11T07:33:10.871Z,23.00
2022-09-11T07:34:15.245Z,21.10
2022-09-11T07:35:19.637Z,21.00
2022-09-11T07:36:24.036Z,20.60
2022-09-11T07:37:28.439Z,19.30
2022-09-11T07:38:32.826Z,20.00
2022-09-11T07:39:37.252Z,19.00
2022-09-11T07:40:41.632Z,19.80
2022-09-11T07:41:46.033Z,19.70
2022-09-11T07:42:50.419Z,19.90
2022-09-11T07:43:54.812Z,20.10
2022-09-11T07:44:59.186Z,20.90
2022-09-11T07:46:03.633Z,20.80
2022-09-11T07:47:07.997Z,19.10
2022-09-11T07:48:12.386Z,19.80
2022-09-11T07:49:16.777Z,18.00
2022-09-11T07:50:21.168Z,17.00
2022-09-11T07:51:25.568Z,17.50
2022-09-11T07:52:29.956Z,17.10
2022-09-11T07:53:34.337Z,17.70
2022-09-11T07:54:38.729Z,17.50
2022-09-11T07:55:43.108Z,17.10
2022-09-11T07:56:47.518Z,17.80
2022-09-11T07:57:51.907Z,19.10
2022-09-11T07:58:56.302Z,17.60
2022-09-11T08:00:00.681Z,18.20
2022-09-11T08:01:05.164Z,18.10
2022-09-11T08:02:09.501Z,19.50
2022-09-11T08:03:13.862Z,18.90
2022-09-11T08:04:18.238Z,18.40
2022-09-11T08:05:22.620Z,18.50
2022-09-11T08:06:26.997Z,18.60
2022-09-11T08:07:31.410Z,18.60
2022-09-11T08:08:35.790Z,16.70
2022-09-11T08:09:40.202Z,17.40
2022-09-11T08:10:44.581Z,17.70
2022-09-11T08:11:49.028Z,18.50
2022-09-11T08:12:56.886Z,17.90
2022-09-11T08:13:57.761Z,17.80
2022-09-11T08:15:02.153Z,17.90
2022-09-11T08:16:06.605Z,17.30
2022-09-11T08:17:10.933Z,18.20
2022-09-11T08:18:15.333Z,16.80
2022-09-11T08:19:19.701Z,18.20
2022-09-11T08:20:24.081Z,16.70
2022-09-11T08:21:28.456Z,17.20
2022-09-11T08:22:32.861Z,17.80
2022-09-11T08:23:37.252Z,17.60
2022-09-11T08:24:41.644Z,17.70
2022-09-11T08:25:46.036Z,18.00
2022-09-11T08:26:50.434Z,17.30
2022-09-11T08:27:54.822Z,17.30
2022-09-11T08:28:59.215Z,17.00
2022-09-11T08:30:03.601Z,17.00
2022-09-11T08:31:08.029Z,17.10
2022-09-11T08:32:12.384Z,17.30
2022-09-11T08:33:16.774Z,17.30
2022-09-11T08:34:21.162Z,17.90
2022-09-11T08:35:25.542Z,17.40
2022-09-11T08:36:29.925Z,17.10
2022-09-11T08:37:34.324Z,18.30
2022-09-11T08:38:38.717Z,17.90
2022-09-11T08:39:43.126Z,18.20
2022-09-11T08:40:47.475Z,18.50
2022-09-11T08:41:51.863Z,18.50
2022-09-11T08:42:56.284Z,17.90
2022-09-11T08:44:00.674Z,17.70
2022-09-11T08:45:05.056Z,18.80
2022-09-11T08:46:09.510Z,18.50
2022-09-11T08:47:13.847Z,19.10
2022-09-11T08:48:18.226Z,18.40
2022-09-11T08:49:22.603Z,18.50
2022-09-11T08:50:26.975Z,19.00
2022-09-11T08:51:31.366Z,19.90
2022-09-11T08:52:35.766Z,19.30
2022-09-11T08:53:40.196Z,20.30
2022-09-11T08:54:44.537Z,19.20
2022-09-11T08:55:48.916Z,19.90
2022-09-11T08:56:53.297Z,19.40
2022-09-11T08:57:57.704Z,19.50
2022-09-11T08:59:02.084Z,20.20
2022-09-11T09:00:06.476Z,19.20
2022-09-11T09:01:10.885Z,18.90
2022-09-11T09:02:15.294Z,19.10
2022-09-11T09:03:19.640Z,18.90
2022-09-11T09:04:24.038Z,19.20
2022-09-11T09:05:28.388Z,18.90
2022-09-11T09:06:32.777Z,19.50
2022-09-11T09:07:37.187Z,17.80
2022-09-11T09:08:41.577Z,17.40
2022-09-11T09:09:45.958Z,18.00
2022-09-11T09:10:50.360Z,17.40
2022-09-11T09:11:54.748Z,17.90
2022-09-11T09:12:59.158Z,17.80
2022-09-11T09:14:03.538Z,17.40
2022-09-11T09:15:07.931Z,17.00
2022-09-11T09:16:12.343Z,16.40
2022-09-11T09:17:16.717Z,16.60
2022-09-11T09:18:21.097Z,16.40
2022-09-11T09:19:25.481Z,16.00
2022-09-11T09:20:29.858Z,14.40
2022-09-11T09:21:34.270Z,15.00
2022-09-11T09:22:38.650Z,15.10
2022-09-11T09:23:43.123Z,15.40
2022-09-11T09:24:47.447Z,15.80
2022-09-11T09:25:51.838Z,16.60
2022-09-11T09:26:56.243Z,16.20
2022-09-11T09:28:00.622Z,17.40
2022-09-11T09:29:05.011Z,17.10
2022-09-11T09:30:09.400Z,17.90
2022-09-11T09:31:13.811Z,17.50
2022-09-11T09:32:18.205Z,17.30
2022-09-11T09:33:22.702Z,16.70
2022-09-11T09:34:27.082Z,17.30
2022-09-11T09:35:31.471Z,16.70
2022-09-11T09:36:35.872Z,16.90
2022-09-11T09:37:40.280Z,17.50
2022-09-11T09:38:44.662Z,16.80
2022-09-11T09:39:49.095Z,16.70
2022-09-11T09:40:53.423Z,16.20
2022-09-11T09:41:57.842Z,16.10
2022-09-11T09:43:02.235Z,15.20
2022-09-11T09:44:06.612Z,15.80
2022-09-11T09:45:10.994Z,15.80
2022-09-11T09:46:15.478Z,16.20
2022-09-11T09:47:19.780Z,16.00
2022-09-11T09:48:24.171Z,14.70
2022-09-11T09:49:28.553Z,15.50
2022-09-11T09:50:32.937Z,15.20
2022-09-11T09:51:37.320Z,15.10
2022-09-11T09:52:41.732Z,14.90
2022-09-11T09:53:46.113Z,15.40
2022-09-11T09:54:50.494Z,14.80
2022-09-11T09:55:54.896Z,14.70
2022-09-11T09:56:59.274Z,15.00
2022-09-11T09:58:03.683Z,14.90
2022-09-11T09:59:08.064Z,13.90
2022-09-11T10:00:12.458Z,14.50
2022-09-11T10:01:18.129Z,13.90
2022-09-11T10:02:21.273Z,13.60
2022-09-11T10:03:25.629Z,12.80
2022-09-11T10:04:30.017Z,13.40
2022-09-11T10:05:34.395Z,14.10
2022-09-11T10:06:38.776Z,14.00
2022-09-11T10:07:43.176Z,14.20
2022-09-11T10:08:47.576Z,14.40
2022-09-11T10:09:51.956Z,15.40
2022-09-11T10:10:56.335Z,15.40
2022-09-11T10:12:00.747Z,15.10
2022-09-11T10:13:18.535Z,14.60
2022-09-11T10:14:11.952Z,14.60
2022-09-11T10:15:13.907Z,14.10
2022-09-11T10:16:18.328Z,13.60
2022-09-11T10:17:22.697Z,13.90
2022-09-11T10:18:27.076Z,13.90
2022-09-11T10:19:31.458Z,13.20
2022-09-11T10:20:35.849Z,13.80
2022-09-11T10:21:40.234Z,13.50
2022-09-11T10:22:44.630Z,13.10
2022-09-11T10:23:49.017Z,13.40
2022-09-11T10:24:53.397Z,13.30
2022-09-11T10:25:57.795Z,13.70
2022-09-11T10:27:02.208Z,13.50
2022-09-11T10:28:06.588Z,13.50
2022-09-11T10:29:10.977Z,14.10
2022-09-11T10:30:15.448Z,13.60
2022-09-11T10:31:19.787Z,13.70
2022-09-11T10:32:24.159Z,14.20
2022-09-11T10:33:28.547Z,13.40
2022-09-11T10:34:32.930Z,14.60
2022-09-11T10:35:37.312Z,14.00
2022-09-11T10:36:41.709Z,13.70
2022-09-11T10:37:46.117Z,13.50
2022-09-11T10:38:50.511Z,13.70
2022-09-11T10:39:54.934Z,14.40
2022-09-11T10:40:59.282Z,13.40
2022-09-11T10:42:03.660Z,13.80
2022-09-11T10:43:08.081Z,14.00
2022-09-11T10:44:12.466Z,13.60
2022-09-11T10:45:16.853Z,14.20
2022-09-11T10:46:21.264Z,14.30
2022-09-11T10:47:25.662Z,13.50
2022-09-11T10:48:30.042Z,13.60
2022-09-11T10:49:34.423Z,12.80
2022-09-11T10:50:38.817Z,14.10
2022-09-11T10:51:46.905Z,13.60
2022-09-11T10:52:47.599Z,13.70
2022-09-11T10:53:51.981Z,13.60
2022-09-11T10:54:56.361Z,13.90
2022-09-11T10:56:00.765Z,13.80
2022-09-11T10:57:05.142Z,13.80
2022-09-11T10:58:09.541Z,13.40
2022-09-11T10:59:13.913Z,13.10
2022-09-11T11:00:18.301Z,13.70
2022-09-11T11:01:22.697Z,13.20
2022-09-11T11:02:27.131Z,13.10
2022-09-11T11:03:31.472Z,12.50
2022-09-11T11:04:35.851Z,12.80
2022-09-11T11:05:40.233Z,13.40
2022-09-11T11:06:44.624Z,13.30
2022-09-11T11:07:49.014Z,12.80
2022-09-11T11:08:53.393Z,13.10
2022-09-11T11:09:57.772Z,12.50
2022-09-11T11:11:02.154Z,12.60
2022-09-11T11:12:06.514Z,13.10
2022-09-11T11:13:10.915Z,11.90
2022-09-11T11:14:15.306Z,12.90
2022-09-11T11:15:19.712Z,12.40
2022-09-11T11:16:24.084Z,12.20
2022-09-11T11:17:28.465Z,13.10
2022-09-11T11:18:32.867Z,13.90
2022-09-11T11:19:37.245Z,13.10
2022-09-11T11:20:41.623Z,12.60
2022-09-11T11:21:45.996Z,12.60
2022-09-11T11:22:50.399Z,13.30
2022-09-11T11:23:54.776Z,12.70
2022-09-11T11:24:59.155Z,13.10
2022-09-11T11:26:03.535Z,13.20
2022-09-11T11:27:07.925Z,12.40
2022-09-11T11:28:12.327Z,12.80
2022-09-11T11:29:16.707Z,12.50
2022-09-11T11:30:21.087Z,12.70
2022-09-11T11:31:25.495Z,12.20
2022-09-11T11:32:29.845Z,12.50
2022-09-11T11:33:34.241Z,12.70
2022-09-11T11:34:38.618Z,12.10
2022-09-11T11:35:42.988Z,11.80
2022-09-11T11:36:47.380Z,12.30
2022-09-11T11:37:51.755Z,12.00
2022-09-11T11:38:56.138Z,11.80
2022-09-11T11:40:00.619Z,11.90
2022-09-11T11:41:04.938Z,11.80
2022-09-11T11:42:09.322Z,11.70
2022-09-11T11:43:13.721Z,12.90
2022-09-11T11:44:18.098Z,11.70
2022-09-11T11:45:22.479Z,12.40
2022-09-11T11:46:26.839Z,11.80
2022-09-11T11:47:31.222Z,12.00
2022-09-11T11:48:35.611Z,11.80
2022-09-11T11:49:40.000Z,12.10
2022-09-11T11:50:44.379Z,11.90
2022-09-11T11:51:48.751Z,11.30
2022-09-11T11:52:53.129Z,11.50
2022-09-11T11:53:57.519Z,11.20
2022-09-11T11:55:01.889Z,11.80
2022-09-11T11:56:06.266Z,12.00
2022-09-11T11:57:10.642Z,12.20
2022-09-11T11:58:15.040Z,11.90
2022-09-11T11:59:19.571Z,11.80
2022-09-11T12:00:23.781Z,11.10
2022-09-11T12:01:28.162Z,11.00
2022-09-11T12:02:32.532Z,10.90
2022-09-11T12:03:36.977Z,11.50
2022-09-11T12:04:41.303Z,11.50
2022-09-11T12:05:45.682Z,10.90
2022-09-11T12:06:50.062Z,11.50
2022-09-11T12:07:54.435Z,11.80
2022-09-11T12:08:58.834Z,11.80
2022-09-11T12:10:03.202Z,11.30
2022-09-11T12:11:07.583Z,10.80
2022-09-11T12:12:11.952Z,11.40
2022-09-11T12:13:16.339Z,11.60
2022-09-11T12:14:20.735Z,11.90
2022-09-11T12:15:25.104Z,11.50
2022-09-11T12:16:29.535Z,11.30
2022-09-11T12:17:33.865Z,11.60
2022-09-11T12:18:38.256Z,12.40
2022-09-11T12:19:42.625Z,11.90
2022-09-11T12:20:47.004Z,11.40
2022-09-11T12:21:51.382Z,12.10
2022-09-11T12:22:55.744Z,12.80
2022-09-11T12:24:00.142Z,13.40
2022-09-11T12:25:04.514Z,12.60
2022-09-11T12:26:08.891Z,12.80
2022-09-11T12:27:13.263Z,12.60
2022-09-11T12:28:17.666Z,12.40
2022-09-11T12:29:22.036Z,12.50
2022-09-11T12:30:26.405Z,12.60
2022-09-11T12:31:30.782Z,12.80
2022-09-11T12:32:35.157Z,12.80
2022-09-11T12:33:39.546Z,12.10
2022-09-11T12:34:43.925Z,11.80
2022-09-11T12:35:48.295Z,11.10
2022-09-11T12:36:52.667Z,10.80
2022-09-11T12:37:57.037Z,11.70
2022-09-11T12:39:01.437Z,11.30
2022-09-11T12:40:05.851Z,11.40
2022-09-11T12:41:10.198Z,10.70
2022-09-11T12:42:14.567Z,10.60
2022-09-11T12:43:18.976Z,10.70
2022-09-11T12:44:23.350Z,10.20
2022-09-11T12:45:27.789Z,10.10
2022-09-11T12:46:32.099Z,10.40
2022-09-11T12:47:36.467Z,9.70
2022-09-11T12:48:40.875Z,10.10
2022-09-11T12:49:45.249Z,10.40
2022-09-11T12:50:49.627Z,10.00
2022-09-11T12:51:54.007Z,9.70
2022-09-11T12:52:58.384Z,9.40
2022-09-11T12:54:02.787Z,8.80
2022-09-11T12:55:07.160Z,9.40
2022-09-11T12:56:11.539Z,8.60
2022-09-11T12:57:15.909Z,9.50
2022-09-11T12:58:20.298Z,9.00
2022-09-11T12:59:24.691Z,8.50
2022-09-11T13:00:29.060Z,8.60
2022-09-11T13:01:33.505Z,8.70
2022-09-11T13:02:37.830Z,8.50
2022-09-11T13:03:42.220Z,8.70
2022-09-11T13:04:46.590Z,8.60
2022-09-11T13:05:50.972Z,8.30
2022-09-11T13:06:55.351Z,8.60
2022-09-11T13:07:59.740Z,8.20
2022-09-11T13:09:04.124Z,8.30
2022-09-11T13:10:08.503Z,8.10
2022-09-11T13:11:15.404Z,9.00
2022-09-11T13:12:17.262Z,8.30
2022-09-11T13:13:21.632Z,9.20
2022-09-11T13:14:26.022Z,8.70
2022-09-11T13:15:30.394Z,8.70
2022-09-11T13:16:34.784Z,7.80
2022-09-11T13:17:39.120Z,7.40
2022-09-11T13:18:43.663Z,6.60
2022-09-11T13:19:47.983Z,6.00
2022-09-11T13:20:52.232Z,6.30
2022-09-11T13:21:56.592Z,6.80
2022-09-11T13:23:00.953Z,7.40
2022-09-11T13:24:05.723Z,7.40
2022-09-11T13:25:10.073Z,6.80
2022-09-11T13:26:14.428Z,5.30
2022-09-11T13:27:18.783Z,5.80
2022-09-11T13:28:27.072Z,6.30
2022-09-11T13:29:27.521Z,6.90
2022-09-11T13:30:31.865Z,7.60
2022-09-11T13:31:36.222Z,6.90
2022-09-11T13:32:40.581Z,6.80
2022-09-11T13:33:45.100Z,7.10
2022-09-11T13:34:49.294Z,7.70
2022-09-11T13:35:53.646Z,7.70
2022-09-11T13:36:57.988Z,7.20
2022-09-11T13:38:02.344Z,7.30
2022-09-11T13:39:06.704Z,7.30
2022-09-11T13:40:11.130Z,6.60
2022-09-11T13:41:15.390Z,7.00
2022-09-11T13:42:19.736Z,6.00
2022-09-11T13:43:24.076Z,6.40
2022-09-11T13:44:28.436Z,5.70
2022-09-11T13:45:32.833Z,5.90
2022-09-11T13:46:37.126Z,6.40
2022-09-11T13:47:41.462Z,6.20
2022-09-11T13:48:45.798Z,6.70
2022-09-11T13:49:50.158Z,6.10
2022-09-11T13:50:54.491Z,6.10
2022-09-11T13:51:58.827Z,5.80
2022-09-11T13:53:03.158Z,6.10
2022-09-11T13:54:07.514Z,5.90
2022-09-11T13:55:11.883Z,5.40
2022-09-11T13:56:16.191Z,4.90
2022-09-11T13:57:20.526Z,5.10
2022-09-11T13:58:24.862Z,5.20
2022-09-11T13:59:29.220Z,5.20
2022-09-11T14:00:33.539Z,6.00
2022-09-11T14:01:37.875Z,5.70
2022-09-11T14:02:42.257Z,5.60
2022-09-11T14:03:46.520Z,5.20
2022-09-11T14:04:50.870Z,5.80
2022-09-11T14:05:55.215Z,5.30
2022-09-11T14:06:59.521Z,5.50
2022-09-11T14:08:03.841Z,5.30
2022-09-11T14:09:08.168Z,5.00
2022-09-11T14:10:16.510Z,4.90
2022-09-11T14:11:20.822Z,5.80
2022-09-11T14:12:25.172Z,5.60
2022-09-11T14:13:29.482Z,4.80
2022-09-11T14:14:33.802Z,4.90
2022-09-11T14:15:38.192Z,5.40
2022-09-11T14:16:42.479Z,5.90
2022-09-11T14:17:46.813Z,5.00
2022-09-11T14:18:51.142Z,5.50
2022-09-11T14:20:00.303Z,5.20
2022-09-11T14:20:59.833Z,5.20
2022-09-11T14:22:04.154Z,5.00
2022-09-11T14:23:08.484Z,5.30
2022-09-11T14:24:12.804Z,5.30
2022-09-11T14:25:17.172Z,5.30
2022-09-11T14:26:21.545Z,4.80
2022-09-11T14:27:25.814Z,4.40
2022-09-11T14:28:30.135Z,4.80
2022-09-11T14:29:34.462Z,5.00
2022-09-11T14:30:38.813Z,4.90
2022-09-11T14:31:43.147Z,4.50
2022-09-11T14:32:47.465Z,4.50
2022-09-11T14:33:51.786Z,4.40
2022-09-11T14:34:56.116Z,4.80
2022-09-11T14:36:02.690Z,5.10
2022-09-11T14:37:04.785Z,4.00
2022-09-11T14:38:09.116Z,4.10
2022-09-11T14:39:13.446Z,4.50
2022-09-11T14:40:17.842Z,4.50
2022-09-11T14:41:22.107Z,4.60
2022-09-11T14:42:26.433Z,4.70
2022-09-11T14:43:30.759Z,4.20
2022-09-11T14:44:35.085Z,4.20
2022-09-11T14:45:39.442Z,4.30
2022-09-11T14:46:43.775Z,4.20
2022-09-11T14:47:48.076Z,4.30
2022-09-11T14:48:52.401Z,3.90
2022-09-11T14:49:56.748Z,4.30
2022-09-11T14:51:01.090Z,4.20
2022-09-11T14:52:06.379Z,3.90
2022-09-11T14:53:10.700Z,3.90
2022-09-11T14:54:15.028Z,4.10
2022-09-11T14:55:19.378Z,3.80
2022-09-11T14:56:23.713Z,3.70
2022-09-11T14:57:28.040Z,3.70
2022-09-11T14:58:32.366Z,3.90
2022-09-11T14:59:36.707Z,4.20
2022-09-11T15:00:41.050Z,3.80
2022-09-11T15:01:45.431Z,3.60
2022-09-11T15:02:49.704Z,3.90
2022-09-11T15:03:54.031Z,3.90
2022-09-11T15:04:58.384Z,4.20
2022-09-11T15:06:02.714Z,4.70
2022-09-11T15:07:07.040Z,4.40
2022-09-11T15:08:11.383Z,4.40
2022-09-11T15:09:15.714Z,4.30
2022-09-11T15:10:20.076Z,4.40
2022-09-11T15:11:24.402Z,4.20
2022-09-11T15:12:28.732Z,4.00
2022-09-11T15:13:33.084Z,3.60
2022-09-11T15:14:56.867Z,3.80
2022-09-11T15:15:41.835Z,3.30
2022-09-11T15:16:46.126Z,3.50
2022-09-11T15:17:50.474Z,3.40
2022-09-11T15:18:54.792Z,3.80
2022-09-11T15:19:59.155Z,3.80
2022-09-11T15:21:03.493Z,3.70
2022-09-11T15:22:07.830Z,4.00
2022-09-11T15:23:12.174Z,4.00
2022-09-11T15:24:16.596Z,4.40
2022-09-11T15:25:21.106Z,4.30
2022-09-11T15:26:25.474Z,4.00
2022-09-11T15:27:29.826Z,4.40
2022-09-11T15:28:34.165Z,4.30
2022-09-11T15:29:38.534Z,4.80
2022-09-11T15:30:42.897Z,4.60
2022-09-11T15:31:47.244Z,4.20
2022-09-11T15:32:51.575Z,4.60
2022-09-11T15:33:55.916Z,4.20
2022-09-11T15:35:00.274Z,4.20
2022-09-11T15:36:04.629Z,4.40
2022-09-11T15:37:08.966Z,4.10
2022-09-11T15:38:13.305Z,3.90
2022-09-11T15:39:17.646Z,4.10
2022-09-11T15:40:22.018Z,3.90
2022-09-11T15:41:26.357Z,4.40
2022-09-11T15:42:30.707Z,4.10
2022-09-11T15:43:35.057Z,4.10
2022-09-11T15:44:39.438Z,4.20
2022-09-11T15:45:43.839Z,4.40
2022-09-11T15:46:48.127Z,4.40
2022-09-11T15:47:52.486Z,4.40
2022-09-11T15:48:56.840Z,4.20
2022-09-11T15:50:01.211Z,4.30
2022-09-11T15:51:06.836Z,4.20
2022-09-11T15:52:09.906Z,4.00
2022-09-11T15:53:14.279Z,4.30
2022-09-11T15:54:18.620Z,4.70
2022-09-11T15:55:23.239Z,4.30
2022-09-11T15:56:27.589Z,4.30
2022-09-11T15:57:31.941Z,4.80
2022-09-11T15:58:36.299Z,4.80
2022-09-11T15:59:40.669Z,4.70
2022-09-11T16:00:45.040Z,4.30
2022-09-11T16:01:49.446Z,4.60
2022-09-11T16:02:53.719Z,4.30
2022-09-11T16:03:58.061Z,4.20
2022-09-11T16:05:02.441Z,4.00
2022-09-11T16:06:06.790Z,3.50
2022-09-11T16:07:11.141Z,3.80
2022-09-11T16:08:15.491Z,4.90
2022-09-11T16:09:19.833Z,4.00
2022-09-11T16:10:24.214Z,4.30
2022-09-11T16:11:28.556Z,4.20
2022-09-11T16:12:32.903Z,4.10
2022-09-11T16:13:37.322Z,4.00
2022-09-11T16:14:41.712Z,4.20
2022-09-11T16:15:46.155Z,4.80
2022-09-11T16:16:50.402Z,4.90
2022-09-11T16:17:54.757Z,5.30
2022-09-11T16:18:59.104Z,4.70
2022-09-11T16:20:03.474Z,4.70
2022-09-11T16:21:07.825Z,4.80
2022-09-11T16:22:12.178Z,5.00
2022-09-11T16:23:16.530Z,4.90
2022-09-11T16:24:20.873Z,4.40
2022-09-11T16:25:25.245Z,4.80
2022-09-11T16:26:29.594Z,4.20
2022-09-11T16:27:33.958Z,4.50
2022-09-11T16:28:38.304Z,4.50
2022-09-11T16:30:51.079Z,4.40
2022-09-11T16:31:51.385Z,4.50
2022-09-11T16:32:55.736Z,4.50
2022-09-11T16:34:00.105Z,4.30
2022-09-11T16:35:04.495Z,4.20
2022-09-11T16:36:08.815Z,4.90
2022-09-11T16:37:13.157Z,5.00
2022-09-11T16:38:17.505Z,4.40
2022-09-11T16:39:22.161Z,4.50
2022-09-11T16:40:26.487Z,4.40
2022-09-11T16:41:30.840Z,4.50
2022-09-11T16:42:35.189Z,4.50
2022-09-11T16:43:39.537Z,4.20
2022-09-11T16:44:43.909Z,4.60
2022-09-11T16:45:48.303Z,5.00
2022-09-11T16:46:52.610Z,4.40
2022-09-11T16:47:56.959Z,4.50
2022-09-11T16:49:02.117Z,5.00
2022-09-11T16:50:07.528Z,4.40
2022-09-11T16:51:10.035Z,4.30
2022-09-11T16:52:14.380Z,4.50
2022-09-11T16:53:18.730Z,4.20
2022-09-11T16:54:23.080Z,4.10
2022-09-11T16:55:27.469Z,3.90
2022-09-11T16:56:31.820Z,4.20
2022-09-11T16:57:36.185Z,3.60
2022-09-11T16:58:40.586Z,3.90
2022-09-11T16:59:44.882Z,4.50
2022-09-11T17:00:49.293Z,4.30
2022-09-11T17:01:53.639Z,4.60
2022-09-11T17:02:57.972Z,4.10
2022-09-11T17:04:02.321Z,4.50
2022-09-11T17:05:06.694Z,4.40
2022-09-11T17:06:11.053Z,3.80
2022-09-11T17:07:15.410Z,4.10
2022-09-11T17:08:19.761Z,4.70
2022-09-11T17:09:24.113Z,4.90
2022-09-11T17:10:28.491Z,4.70
2022-09-11T17:11:32.843Z,4.50
2022-09-11T17:12:37.195Z,4.90
2022-09-11T17:13:41.549Z,4.60
2022-09-11T17:14:45.903Z,4.30
2022-09-11T17:15:50.318Z,4.70
2022-09-11T17:16:54.644Z,5.00
2022-09-11T17:17:59.012Z,4.80
2022-09-11T17:19:03.353Z,5.30
2022-09-11T17:20:07.740Z,5.30
2022-09-11T17:21:12.089Z,5.30
2022-09-11T17:22:16.471Z,5.00
2022-09-11T17:23:20.829Z,4.70
2022-09-11T17:24:25.185Z,4.90
2022-09-11T17:25:29.563Z,5.00
2022-09-11T17:26:33.926Z,5.30
2022-09-11T17:27:38.275Z,5.40
2022-09-11T17:28:42.687Z,5.10
2022-09-11T17:29:46.986Z,5.20
2022-09-11T17:30:51.376Z,5.10
2022-09-11T17:32:16.876Z,5.30
2022-09-11T17:33:00.087Z,5.00
2022-09-11T17:34:04.456Z,5.40
2022-09-11T17:35:08.807Z,5.00
2022-09-11T17:36:13.187Z,5.30
2022-09-11T17:37:17.548Z,4.80
2022-09-11T17:38:21.907Z,5.30
2022-09-11T17:39:26.264Z,6.00
2022-09-11T17:40:30.648Z,5.60
2022-09-11T17:41:35.014Z,6.40
2022-09-11T17:42:39.367Z,5.60
2022-09-11T17:43:43.726Z,5.80
2022-09-11T17:44:48.078Z,5.90
2022-09-11T17:45:52.459Z,6.20
2022-09-11T17:46:56.830Z,5.90
2022-09-11T17:48:01.201Z,6.00
2022-09-11T17:49:05.548Z,5.80
2022-09-11T17:50:09.908Z,6.20
2022-09-11T17:51:14.309Z,6.10
2022-09-11T17:52:18.685Z,6.20
2022-09-11T17:53:23.046Z,6.20
2022-09-11T17:54:27.401Z,6.10
2022-09-11T17:55:31.760Z,6.20
2022-09-11T17:56:36.150Z,6.60
2022-09-11T17:57:40.516Z,6.20
2022-09-11T17:58:45.920Z,6.40
2022-09-11T17:59:50.112Z,6.40
2022-09-11T18:00:54.538Z,6.00
2022-09-11T18:01:58.907Z,6.80
2022-09-11T18:03:03.219Z,5.60
2022-09-11T18:04:07.594Z,6.30
2022-09-11T18:05:11.960Z,6.50
2022-09-11T18:06:16.344Z,6.30
2022-09-11T18:07:20.711Z,6.40
2022-09-11T18:08:25.073Z,6.20
2022-09-11T18:09:29.442Z,6.00
2022-09-11T18:10:33.812Z,6.40
2022-09-11T18:11:38.203Z,6.00
2022-09-11T18:12:42.567Z,6.10
2022-09-11T18:13:46.932Z,6.80
2022-09-11T18:14:51.294Z,6.60
2022-09-11T18:15:55.666Z,6.20
2022-09-11T18:17:00.052Z,7.10
2022-09-11T18:18:04.414Z,7.20
2022-09-11T18:19:08.783Z,7.10
2022-09-11T18:20:13.156Z,7.10
2022-09-11T18:21:17.551Z,6.50
2022-09-11T18:22:21.917Z,7.50
2022-09-11T18:23:26.271Z,7.90
2022-09-11T18:24:30.644Z,7.80
2022-09-11T18:25:35.006Z,8.00
2022-09-11T18:26:39.893Z,7.80
2022-09-11T18:27:43.754Z,7.50
2022-09-11T18:28:49.163Z,8.70
2022-09-11T18:29:52.515Z,8.90
2022-09-11T18:30:56.876Z,7.60
2022-09-11T18:32:02.252Z,8.20
2022-09-11T18:33:10.614Z,7.60
2022-09-11T18:34:10.973Z,8.00
2022-09-11T18:35:15.347Z,7.80
2022-09-11T18:36:19.736Z,7.70
2022-09-11T18:37:24.096Z,7.70
2022-09-11T18:38:32.855Z,7.40
2022-09-11T18:39:32.827Z,7.60
2022-09-11T18:40:37.197Z,7.60
2022-09-11T18:41:41.578Z,8.10
2022-09-11T18:42:45.956Z,8.10
2022-09-11T18:43:50.326Z,7.80
2022-09-11T18:44:54.690Z,8.00
2022-09-11T18:45:59.988Z,7.90
2022-09-11T18:47:03.459Z,8.10
2022-09-11T18:48:07.817Z,7.90
2022-09-11T18:49:12.179Z,8.20
2022-09-11T18:50:16.547Z,7.90
2022-09-11T18:51:20.940Z,8.50
2022-09-11T18:52:26.224Z,8.60
2022-09-11T18:53:29.669Z,8.70
2022-09-11T18:54:34.038Z,9.20
2022-09-11T18:55:38.439Z,9.50
2022-09-11T18:56:42.811Z,9.80
2022-09-11T18:57:49.170Z,9.10
2022-09-11T18:58:52.511Z,9.30
2022-09-11T18:59:56.871Z,8.30
2022-09-11T19:01:01.366Z,8.80